sensor_id;sensor_type;location;lat;lon;timestamp;pressure;altitude;pressure_sealevel;temperature;humidity
63405;BME280;49541;57.840;12.306;2023-04-01T00:02:27;99809.66;;;-0.02;68.64
63405;BME280;49541;57.840;12.306;2023-04-01T00:07:27;99823.22;;;-0.11;68.95
63405;BME280;49541;57.840;12.306;2023-04-01T00:12:27;99825.34;;;-0.17;68.45
63405;BME280;49541;57.840;12.306;2023-04-01T00:17:27;99830.78;;;0.11;67.80
63405;BME280;49541;57.840;12.306;2023-04-01T00:22:27;99827.66;;;0.05;67.59
63405;BME280;49541;57.840;12.306;2023-04-01T00:27:28;99841.47;;;-0.25;68.04
63405;BME280;49541;57.840;12.306;2023-04-01T00:32:28;99850.22;;;-0.26;68.40
63405;BME280;49541;57.840;12.306;2023-04-01T00:37:28;99847.22;;;-0.34;68.15
63405;BME280;49541;57.840;12.306;2023-04-01T00:42:29;99861.25;;;-0.53;68.19
63405;BME280;49541;57.840;12.306;2023-04-01T00:47:29;99870.88;;;-0.53;68.15
63405;BME280;49541;57.840;12.306;2023-04-01T00:52:29;99870.34;;;-0.60;68.04
63405;BME280;49541;57.840;12.306;2023-04-01T00:57:31;99866.28;;;-0.50;67.96
63405;BME280;49541;57.840;12.306;2023-04-01T01:02:33;99878.84;;;-0.56;67.59
63405;BME280;49541;57.840;12.306;2023-04-01T01:23:22;99888.50;;;-1.09;69.83
63405;BME280;49541;57.840;12.306;2023-04-01T01:28:44;99902.72;;;-1.15;69.28
63405;BME280;49541;57.840;12.306;2023-04-01T01:33:59;99903.94;;;-1.05;68.80
63405;BME280;49541;57.840;12.306;2023-04-01T01:39:03;99914.31;;;-1.20;69.65
63405;BME280;49541;57.840;12.306;2023-04-01T01:44:06;99913.16;;;-1.15;69.25
63405;BME280;49541;57.840;12.306;2023-04-01T01:49:07;99920.91;;;-1.31;69.48
63405;BME280;49541;57.840;12.306;2023-04-01T01:54:16;99917.06;;;-1.24;69.61
63405;BME280;49541;57.840;12.306;2023-04-01T01:59:17;99926.25;;;-1.34;69.10
63405;BME280;49541;57.840;12.306;2023-04-01T02:04:19;99932.50;;;-1.55;69.57
63405;BME280;49541;57.840;12.306;2023-04-01T02:09:20;99931.38;;;-1.50;68.89
63405;BME280;49541;57.840;12.306;2023-04-01T02:14:21;99935.31;;;-1.79;69.88
63405;BME280;49541;57.840;12.306;2023-04-01T02:19:24;99929.75;;;-1.52;68.78
63405;BME280;49541;57.840;12.306;2023-04-01T02:24:26;99932.09;;;-1.65;69.01
63405;BME280;49541;57.840;12.306;2023-04-01T02:29:28;99931.53;;;-1.72;68.66
63405;BME280;49541;57.840;12.306;2023-04-01T02:34:28;99939.78;;;-1.81;69.83
63405;BME280;49541;57.840;12.306;2023-04-01T02:39:28;99948.03;;;-1.90;69.51
63405;BME280;49541;57.840;12.306;2023-04-01T02:44:29;99953.66;;;-1.99;69.19
63405;BME280;49541;57.840;12.306;2023-04-01T02:49:29;99960.75;;;-1.82;69.29
63405;BME280;49541;57.840;12.306;2023-04-01T02:54:30;99962.25;;;-2.16;69.57
63405;BME280;49541;57.840;12.306;2023-04-01T02:59:30;99976.00;;;-2.13;69.58
63405;BME280;49541;57.840;12.306;2023-04-01T03:04:30;99985.50;;;-2.12;70.14
63405;BME280;49541;57.840;12.306;2023-04-01T03:09:30;99984.75;;;-2.34;70.36
63405;BME280;49541;57.840;12.306;2023-04-01T03:14:30;99993.84;;;-2.43;71.21
63405;BME280;49541;57.840;12.306;2023-04-01T03:19:31;99986.47;;;-2.54;71.24
63405;BME280;49541;57.840;12.306;2023-04-01T03:24:31;99999.50;;;-2.54;71.46
63405;BME280;49541;57.840;12.306;2023-04-01T03:29:31;100012.09;;;-2.65;72.11
63405;BME280;49541;57.840;12.306;2023-04-01T03:34:31;100013.91;;;-2.45;71.51
63405;BME280;49541;57.840;12.306;2023-04-01T03:39:31;100021.38;;;-2.37;70.43
63405;BME280;49541;57.840;12.306;2023-04-01T03:44:32;100022.88;;;-2.52;71.73
63405;BME280;49541;57.840;12.306;2023-04-01T03:49:32;100032.75;;;-2.38;70.78
63405;BME280;49541;57.840;12.306;2023-04-01T03:54:33;100036.63;;;-2.28;70.35
63405;BME280;49541;57.840;12.306;2023-04-01T03:59:33;100041.41;;;-2.38;70.63
63405;BME280;49541;57.840;12.306;2023-04-01T04:04:33;100046.16;;;-2.48;70.81
63405;BME280;49541;57.840;12.306;2023-04-01T04:09:34;100058.19;;;-2.65;71.06
63405;BME280;49541;57.840;12.306;2023-04-01T04:14:34;100060.25;;;-2.31;69.21
63405;BME280;49541;57.840;12.306;2023-04-01T04:19:34;100060.25;;;-2.52;69.07
63405;BME280;49541;57.840;12.306;2023-04-01T04:24:35;100063.81;;;-2.76;69.66
63405;BME280;49541;57.840;12.306;2023-04-01T04:29:35;100070.22;;;-2.83;69.93
63405;BME280;49541;57.840;12.306;2023-04-01T04:34:35;100082.50;;;-2.87;69.74
63405;BME280;49541;57.840;12.306;2023-04-01T04:39:36;100088.25;;;-2.79;69.39
63405;BME280;49541;57.840;12.306;2023-04-01T04:44:36;100084.81;;;-2.79;69.82
63405;BME280;49541;57.840;12.306;2023-04-01T04:49:40;100096.03;;;-2.77;70.10
63405;BME280;49541;57.840;12.306;2023-04-01T04:54:40;100094.72;;;-3.11;70.63
63405;BME280;49541;57.840;12.306;2023-04-01T04:59:40;100101.34;;;-3.02;70.63
63405;BME280;49541;57.840;12.306;2023-04-01T05:04:40;100108.13;;;-2.76;70.58
63405;BME280;49541;57.840;12.306;2023-04-01T05:09:41;100113.03;;;-2.91;70.93
63405;BME280;49541;57.840;12.306;2023-04-01T05:14:41;100118.44;;;-2.51;70.66
63405;BME280;49541;57.840;12.306;2023-04-01T05:19:41;100124.38;;;-2.48;70.56
63405;BME280;49541;57.840;12.306;2023-04-01T05:24:41;100140.56;;;-2.39;70.56
63405;BME280;49541;57.840;12.306;2023-04-01T05:29:41;100135.53;;;-2.66;70.92
63405;BME280;49541;57.840;12.306;2023-04-01T05:34:41;100146.09;;;-2.93;72.31
63405;BME280;49541;57.840;12.306;2023-04-01T05:39:42;100160.63;;;-2.41;71.13
63405;BME280;49541;57.840;12.306;2023-04-01T05:44:42;100164.44;;;-2.50;71.37
63405;BME280;49541;57.840;12.306;2023-04-01T05:49:42;100167.78;;;-2.47;70.45
63405;BME280;49541;57.840;12.306;2023-04-01T05:54:42;100174.47;;;-2.39;70.21
63405;BME280;49541;57.840;12.306;2023-04-01T05:59:42;100178.94;;;-2.21;70.27
63405;BME280;49541;57.840;12.306;2023-04-01T06:04:43;100187.97;;;-2.08;69.88
63405;BME280;49541;57.840;12.306;2023-04-01T06:09:43;100194.41;;;-2.16;69.44
63405;BME280;49541;57.840;12.306;2023-04-01T06:14:48;100198.41;;;-2.08;69.33
63405;BME280;49541;57.840;12.306;2023-04-01T06:20:05;100202.47;;;-2.00;68.84
63405;BME280;49541;57.840;12.306;2023-04-01T06:25:12;100201.03;;;-2.08;69.71
63405;BME280;49541;57.840;12.306;2023-04-01T06:50:52;100230.97;;;-1.33;66.36
63405;BME280;49541;57.840;12.306;2023-04-01T06:56:05;100224.28;;;-0.99;65.12
63405;BME280;49541;57.840;12.306;2023-04-01T07:01:08;100228.63;;;-0.99;65.35
63405;BME280;49541;57.840;12.306;2023-04-01T07:06:14;100234.69;;;-1.18;66.15
63405;BME280;49541;57.840;12.306;2023-04-01T07:11:24;100247.41;;;-0.71;64.91
63405;BME280;49541;57.840;12.306;2023-04-01T07:16:29;100254.44;;;-0.92;65.33
63405;BME280;49541;57.840;12.306;2023-04-01T07:21:33;100252.56;;;-0.50;62.80
63405;BME280;49541;57.840;12.306;2023-04-01T07:26:36;100258.78;;;-0.34;62.55
63405;BME280;49541;57.840;12.306;2023-04-01T07:36:45;100278.78;;;0.23;61.81
63405;BME280;49541;57.840;12.306;2023-04-01T07:41:59;100279.53;;;0.07;60.86
63405;BME280;49541;57.840;12.306;2023-04-01T07:52:13;100295.22;;;0.26;59.76
63405;BME280;49541;57.840;12.306;2023-04-01T08:07:50;100308.94;;;0.66;58.10
63405;BME280;49541;57.840;12.306;2023-04-01T08:23:01;100318.78;;;1.13;57.04
63405;BME280;49541;57.840;12.306;2023-04-01T08:28:13;100328.16;;;1.35;55.19
63405;BME280;49541;57.840;12.306;2023-04-01T08:33:23;100319.06;;;1.42;56.40
63405;BME280;49541;57.840;12.306;2023-04-01T08:39:12;100331.13;;;1.62;56.45
63405;BME280;49541;57.840;12.306;2023-04-01T08:43:49;100329.78;;;1.87;55.27
63405;BME280;49541;57.840;12.306;2023-04-01T08:48:55;100337.91;;;2.30;55.46
63405;BME280;49541;57.840;12.306;2023-04-01T08:54:14;100337.06;;;2.29;54.89
63405;BME280;49541;57.840;12.306;2023-04-01T08:59:43;100339.56;;;2.62;53.28
63405;BME280;49541;57.840;12.306;2023-04-01T09:10:01;100337.09;;;2.59;54.79
63405;BME280;49541;57.840;12.306;2023-04-01T09:15:27;100340.34;;;3.09;53.56
63405;BME280;49541;57.840;12.306;2023-04-01T09:20:47;100345.28;;;3.30;51.62
63405;BME280;49541;57.840;12.306;2023-04-01T09:31:19;100356.94;;;3.54;49.40
63405;BME280;49541;57.840;12.306;2023-04-01T09:36:32;100358.44;;;3.73;50.33
63405;BME280;49541;57.840;12.306;2023-04-01T09:46:58;100361.03;;;4.16;50.09
63405;BME280;49541;57.840;12.306;2023-04-01T09:52:15;100362.59;;;4.33;48.94
63405;BME280;49541;57.840;12.306;2023-04-01T10:07:42;100373.78;;;5.03;49.26
63405;BME280;49541;57.840;12.306;2023-04-01T10:23:36;100377.09;;;5.45;47.32
63405;BME280;49541;57.840;12.306;2023-04-01T10:28:35;100385.19;;;5.93;46.70
63405;BME280;49541;57.840;12.306;2023-04-01T10:49:07;100399.06;;;6.71;45.63
63405;BME280;49541;57.840;12.306;2023-04-01T10:54:17;100396.13;;;6.75;45.42
63405;BME280;49541;57.840;12.306;2023-04-01T11:10:01;100401.72;;;7.42;44.63
63405;BME280;49541;57.840;12.306;2023-04-01T11:15:16;100407.75;;;7.32;43.46
63405;BME280;49541;57.840;12.306;2023-04-01T11:25:46;100421.91;;;8.12;43.95
63405;BME280;49541;57.840;12.306;2023-04-01T11:31:00;100423.81;;;8.55;44.34
63405;BME280;49541;57.840;12.306;2023-04-01T11:41:25;100427.03;;;9.55;41.16
63405;BME280;49541;57.840;12.306;2023-04-01T11:52:11;100434.03;;;10.08;39.60
63405;BME280;49541;57.840;12.306;2023-04-01T12:02:27;100443.25;;;11.04;38.11
63405;BME280;49541;57.840;12.306;2023-04-01T12:12:46;100450.97;;;11.17;37.69
63405;BME280;49541;57.840;12.306;2023-04-01T12:23:03;100458.81;;;11.38;36.46
63405;BME280;49541;57.840;12.306;2023-04-01T12:28:10;100468.59;;;11.77;34.71
63405;BME280;49541;57.840;12.306;2023-04-01T13:25:17;100514.72;;;13.63;30.27
63405;BME280;49541;57.840;12.306;2023-04-01T13:31:07;100516.09;;;14.45;28.75
63405;BME280;49541;57.840;12.306;2023-04-01T14:01:42;100552.59;;;15.23;27.36
63405;BME280;49541;57.840;12.306;2023-04-01T14:06:58;100558.81;;;15.48;26.97
63405;BME280;49541;57.840;12.306;2023-04-01T14:22:20;100567.63;;;15.75;26.75
63405;BME280;49541;57.840;12.306;2023-04-01T14:58:13;100604.88;;;16.03;30.65
63405;BME280;49541;57.840;12.306;2023-04-01T15:03:24;100609.22;;;16.20;29.17
63405;BME280;49541;57.840;12.306;2023-04-01T15:08:31;100605.16;;;16.32;29.84
63405;BME280;49541;57.840;12.306;2023-04-01T15:39:21;100665.03;;;16.90;29.53
63405;BME280;49541;57.840;12.306;2023-04-01T15:49:43;100665.22;;;16.64;29.27
63405;BME280;49541;57.840;12.306;2023-04-01T16:10:27;100699.38;;;15.64;28.13
63405;BME280;49541;57.840;12.306;2023-04-01T16:20:55;100704.94;;;15.20;28.09
63405;BME280;49541;57.840;12.306;2023-04-01T16:26:01;100713.19;;;15.00;29.60
63405;BME280;49541;57.840;12.306;2023-04-01T16:31:07;100729.91;;;15.63;27.94
63405;BME280;49541;57.840;12.306;2023-04-01T16:41:34;100741.78;;;15.52;27.54
63405;BME280;49541;57.840;12.306;2023-04-01T16:46:43;100746.25;;;15.09;28.12
63405;BME280;49541;57.840;12.306;2023-04-01T16:52:30;100753.19;;;14.31;29.27
63405;BME280;49541;57.840;12.306;2023-04-01T17:07:35;100782.00;;;13.46;30.26
63405;BME280;49541;57.840;12.306;2023-04-01T17:22:44;100806.78;;;12.62;31.16
63405;BME280;49541;57.840;12.306;2023-04-01T17:27:49;100808.16;;;12.18;31.84
63405;BME280;49541;57.840;12.306;2023-04-01T17:32:54;100817.22;;;11.03;33.85
63405;BME280;49541;57.840;12.306;2023-04-01T17:43:08;100827.34;;;10.24;35.19
63405;BME280;49541;57.840;12.306;2023-04-01T17:58:42;100858.00;;;9.62;36.93
63405;BME280;49541;57.840;12.306;2023-04-01T18:08:57;100865.47;;;9.34;38.33
63405;BME280;49541;57.840;12.306;2023-04-01T18:30:07;100902.47;;;8.04;41.78
63405;BME280;49541;57.840;12.306;2023-04-01T18:34:59;100910.03;;;7.59;42.34
63405;BME280;49541;57.840;12.306;2023-04-01T18:45:17;100930.19;;;6.96;44.37
63405;BME280;49541;57.840;12.306;2023-04-01T18:55:25;100938.75;;;6.45;45.45
63405;BME280;49541;57.840;12.306;2023-04-01T19:00:35;100951.56;;;6.10;46.43
63405;BME280;49541;57.840;12.306;2023-04-01T19:05:38;100959.28;;;5.84;47.12
63405;BME280;49541;57.840;12.306;2023-04-01T19:10:51;100959.34;;;5.83;47.76
63405;BME280;49541;57.840;12.306;2023-04-01T19:21:16;100972.50;;;5.40;48.86
63405;BME280;49541;57.840;12.306;2023-04-01T19:38:01;101001.56;;;4.46;51.44
63405;BME280;49541;57.840;12.306;2023-04-01T19:52:58;101033.81;;;3.84;53.08
63405;BME280;49541;57.840;12.306;2023-04-01T20:08:16;101042.19;;;3.40;54.60
63405;BME280;49541;57.840;12.306;2023-04-01T20:18:34;101056.72;;;2.94;55.35
63405;BME280;49541;57.840;12.306;2023-04-01T20:28:45;101065.38;;;3.15;55.30
63405;BME280;49541;57.840;12.306;2023-04-01T20:33:53;101071.88;;;2.89;55.39
63405;BME280;49541;57.840;12.306;2023-04-01T20:54:41;101103.41;;;2.30;55.95
63405;BME280;49541;57.840;12.306;2023-04-01T21:10:15;101130.88;;;1.82;57.59
63405;BME280;49541;57.840;12.306;2023-04-01T21:25:35;101158.94;;;1.59;58.36
63405;BME280;49541;57.840;12.306;2023-04-01T21:30:44;101166.50;;;1.45;58.56
63405;BME280;49541;57.840;12.306;2023-04-01T21:35:56;101174.63;;;1.39;59.57
63405;BME280;49541;57.840;12.306;2023-04-01T21:46:56;101190.53;;;0.89;60.44
63405;BME280;49541;57.840;12.306;2023-04-01T22:07:20;101209.44;;;0.48;62.52
63405;BME280;49541;57.840;12.306;2023-04-01T22:17:46;101227.50;;;0.56;62.94
63405;BME280;49541;57.840;12.306;2023-04-01T22:22:55;101234.06;;;0.69;63.12
63405;BME280;49541;57.840;12.306;2023-04-01T22:28:12;101241.16;;;0.14;64.27
63405;BME280;49541;57.840;12.306;2023-04-01T22:38:21;101247.53;;;0.32;65.02
63405;BME280;49541;57.840;12.306;2023-04-01T22:43:32;101246.88;;;0.00;65.24
63405;BME280;49541;57.840;12.306;2023-04-01T22:48:40;101260.28;;;-0.11;65.42
63405;BME280;49541;57.840;12.306;2023-04-01T22:53:46;101263.63;;;0.21;65.18
63405;BME280;49541;57.840;12.306;2023-04-01T22:58:54;101275.75;;;-0.03;66.21
63405;BME280;49541;57.840;12.306;2023-04-01T23:03:56;101280.47;;;0.14;64.92
63405;BME280;49541;57.840;12.306;2023-04-01T23:19:35;101297.59;;;-0.32;64.44
63405;BME280;49541;57.840;12.306;2023-04-01T23:24:38;101296.06;;;-0.69;64.52
63405;BME280;49541;57.840;12.306;2023-04-01T23:29:42;101309.22;;;-0.72;64.06
63405;BME280;49541;57.840;12.306;2023-04-01T23:34:46;101308.13;;;-0.64;63.70
63405;BME280;49541;57.840;12.306;2023-04-01T23:39:52;101315.94;;;-0.62;63.50
63405;BME280;49541;57.840;12.306;2023-04-01T23:44:54;101325.59;;;-0.34;63.13
63405;BME280;49541;57.840;12.306;2023-04-01T23:50:11;101326.06;;;-0.83;64.28
63405;BME280;49541;57.840;12.306;2023-04-01T23:55:24;101341.03;;;-0.88;65.08
